createdAt,value
2022-08-11T00:01:35.545Z,51.76
2022-08-11T00:04:39.858Z,51.72
2022-08-11T00:07:45.460Z,51.63
2022-08-11T00:10:55.335Z,51.58
2022-08-11T00:13:59.607Z,51.34
2022-08-11T00:17:06.514Z,50.73
2022-08-11T00:20:18.061Z,50.42
2022-08-11T00:23:21.254Z,50.50
2022-08-11T00:26:25.047Z,50.37
2022-08-11T00:29:27.976Z,50.40
2022-08-11T00:32:31.140Z,50.62
2022-08-11T00:35:53.888Z,51.09
2022-08-11T00:39:05.733Z,51.51
2022-08-11T00:42:24.291Z,51.76
2022-08-11T00:45:38.961Z,51.87
2022-08-11T00:48:53.691Z,52.52
2022-08-11T00:52:34.974Z,53.40
2022-08-11T00:55:47.162Z,54.07
2022-08-11T00:59:35.284Z,54.39
2022-08-11T01:03:18.227Z,53.88
2022-08-11T01:06:58.442Z,53.59
2022-08-11T01:10:58.393Z,54.24
2022-08-11T01:14:33.852Z,54.86
2022-08-11T01:17:50.360Z,55.54
2022-08-11T01:21:05.362Z,56.00
2022-08-11T01:24:33.665Z,56.34
2022-08-11T01:27:55.352Z,55.91
2022-08-11T01:31:01.413Z,56.62
2022-08-11T01:34:55.496Z,56.25
2022-08-11T01:38:26.484Z,55.93
2022-08-11T01:42:29.261Z,56.47
2022-08-11T01:45:44.044Z,56.44
2022-08-11T01:50:05.160Z,56.52
2022-08-11T01:53:22.521Z,56.23
2022-08-11T01:56:38.445Z,56.39
2022-08-11T01:59:49.394Z,56.44
2022-08-11T02:03:07.444Z,56.58
2022-08-11T02:06:41.277Z,56.79
2022-08-11T02:10:36.395Z,56.79
2022-08-11T02:14:11.493Z,56.33
2022-08-11T02:17:37.525Z,56.22
2022-08-11T02:21:18.324Z,55.93
2022-08-11T02:24:29.302Z,55.56
2022-08-11T02:28:04.235Z,55.75
2022-08-11T02:32:28.893Z,55.84
2022-08-11T02:35:19.068Z,55.96
2022-08-11T02:38:46.264Z,55.78
2022-08-11T02:42:33.442Z,55.72
2022-08-11T02:45:48.376Z,57.01
2022-08-11T02:49:22.368Z,57.61
2022-08-11T02:52:45.406Z,58.02
2022-08-11T02:56:14.031Z,58.50
2022-08-11T02:59:45.750Z,58.51
2022-08-11T03:03:06.482Z,59.09
2022-08-11T03:06:19.623Z,59.52
2022-08-11T03:09:40.494Z,59.99
2022-08-11T03:13:10.354Z,59.98
2022-08-11T03:16:46.745Z,60.18
2022-08-11T03:20:15.421Z,60.40
2022-08-11T03:23:48.139Z,60.23
2022-08-11T03:27:07.543Z,58.99
2022-08-11T03:30:13.545Z,59.69
2022-08-11T03:33:34.331Z,59.63
2022-08-11T03:37:15.632Z,59.90
2022-08-11T03:40:37.722Z,59.06
2022-08-11T03:44:07.759Z,58.33
2022-08-11T03:47:55.020Z,58.10
2022-08-11T03:51:08.479Z,58.90
2022-08-11T03:54:29.605Z,58.41
2022-08-11T03:57:44.667Z,58.20
2022-08-11T04:01:06.030Z,58.20
2022-08-11T04:04:50.704Z,58.73
2022-08-11T04:08:15.482Z,58.76
2022-08-11T04:11:37.645Z,59.07
2022-08-11T04:15:32.356Z,59.47
2022-08-11T04:19:15.248Z,60.78
2022-08-11T04:22:44.298Z,61.85
2022-08-11T04:26:19.023Z,62.00
2022-08-11T04:29:35.995Z,59.84
2022-08-11T04:32:59.780Z,60.26
2022-08-11T04:36:41.699Z,60.25
2022-08-11T04:40:12.455Z,59.53
2022-08-11T04:43:25.108Z,57.90
2022-08-11T04:48:03.958Z,58.43
2022-08-11T04:51:42.727Z,57.12
2022-08-11T04:55:07.226Z,57.00
2022-08-11T04:58:45.567Z,56.81
2022-08-11T05:02:25.694Z,56.52
2022-08-11T05:05:57.599Z,56.23
2022-08-11T05:09:26.092Z,55.86
2022-08-11T05:12:32.774Z,55.51
2022-08-11T05:16:06.112Z,54.69
2022-08-11T05:19:35.792Z,53.91
2022-08-11T05:23:08.425Z,53.43
2022-08-11T05:26:47.611Z,52.73
2022-08-11T05:30:20.663Z,52.72
2022-08-11T05:33:54.085Z,52.73
2022-08-11T05:37:29.162Z,51.40
2022-08-11T05:40:53.302Z,51.37
2022-08-11T05:44:23.193Z,50.64
2022-08-11T05:47:45.779Z,49.45
2022-08-11T05:51:16.594Z,49.63
2022-08-11T05:54:38.712Z,48.40
2022-08-11T05:57:50.791Z,47.52
2022-08-11T06:00:55.799Z,47.49
2022-08-11T06:04:15.773Z,47.31
2022-08-11T06:07:18.809Z,47.06
2022-08-11T06:10:37.308Z,45.74
2022-08-11T06:13:45.945Z,45.30
2022-08-11T06:16:51.066Z,44.83
2022-08-11T06:20:07.407Z,45.17
2022-08-11T06:23:11.352Z,44.29
2022-08-11T06:26:15.489Z,44.86
2022-08-11T06:29:19.241Z,44.46
2022-08-11T06:32:26.132Z,45.15
2022-08-11T06:35:34.937Z,44.84
2022-08-11T06:39:21.205Z,45.25
2022-08-11T06:42:43.805Z,44.33
2022-08-11T06:45:49.247Z,43.11
2022-08-11T06:48:53.941Z,43.16
2022-08-11T06:52:01.757Z,42.17
2022-08-11T06:55:57.115Z,41.10
2022-08-11T06:58:57.271Z,40.96
2022-08-11T07:02:15.281Z,40.64
2022-08-11T07:05:26.407Z,40.94
2022-08-11T07:08:53.936Z,40.32
2022-08-11T07:12:56.438Z,39.94
2022-08-11T07:16:11.464Z,39.94
2022-08-11T07:19:42.231Z,39.07
2022-08-11T07:23:13.699Z,38.55
2022-08-11T07:26:38.481Z,38.78
2022-08-11T07:29:45.057Z,38.01
2022-08-11T07:32:54.048Z,38.96
2022-08-11T07:36:00.128Z,38.66
2022-08-11T07:39:03.138Z,38.42
2022-08-11T07:42:15.074Z,37.66
2022-08-11T07:45:37.096Z,37.50
2022-08-11T07:49:00.546Z,37.86
2022-08-11T07:52:21.844Z,38.06
2022-08-11T07:55:49.150Z,38.07
2022-08-11T07:59:09.612Z,38.35
2022-08-11T08:02:31.974Z,37.60
2022-08-11T08:05:54.005Z,35.11
2022-08-11T08:09:16.476Z,35.19
2022-08-11T08:12:43.167Z,35.73
2022-08-11T08:16:04.988Z,36.45
2022-08-11T08:19:07.927Z,36.89
2022-08-11T08:22:38.141Z,36.35
2022-08-11T08:25:41.307Z,36.91
2022-08-11T08:28:46.568Z,37.52
2022-08-11T08:31:50.017Z,37.13
2022-08-11T08:34:55.246Z,36.83
2022-08-11T08:37:59.871Z,36.54
2022-08-11T08:41:02.995Z,36.94
2022-08-11T08:47:43.265Z,35.85
2022-08-11T08:51:54.866Z,35.10
2022-08-11T08:54:58.135Z,33.96
2022-08-11T08:58:02.340Z,33.85
2022-08-11T09:01:06.034Z,33.99
2022-08-11T09:04:12.363Z,33.72
2022-08-11T09:07:18.259Z,32.54
2022-08-11T09:10:24.520Z,29.52
2022-08-11T09:13:27.630Z,28.46
2022-08-11T09:16:30.956Z,28.65
2022-08-11T09:19:34.053Z,28.73
2022-08-11T09:23:35.215Z,28.39
2022-08-11T09:26:41.139Z,28.15
2022-08-11T09:29:45.601Z,27.69
2022-08-11T09:32:48.326Z,27.44
2022-08-11T09:35:52.891Z,27.03
2022-08-11T09:39:15.619Z,27.04
2022-08-11T09:42:23.507Z,29.37
2022-08-11T09:45:27.817Z,30.40
2022-08-11T09:48:46.180Z,31.24
2022-08-11T09:52:02.006Z,31.90
2022-08-11T09:55:11.530Z,31.69
2022-08-11T09:58:42.991Z,31.73
2022-08-11T10:01:47.311Z,31.45
2022-08-11T10:05:15.624Z,31.12
2022-08-11T10:08:20.959Z,31.06
2022-08-11T10:11:25.135Z,30.30
2022-08-11T10:14:48.513Z,29.97
2022-08-11T10:18:15.980Z,29.67
2022-08-11T10:21:30.678Z,29.00
2022-08-11T10:24:52.301Z,28.46
2022-08-11T10:28:28.805Z,28.74
2022-08-11T10:31:57.697Z,28.42
2022-08-11T10:35:07.300Z,27.67
2022-08-11T10:38:13.275Z,27.66
2022-08-11T10:41:34.402Z,28.47
2022-08-11T10:44:45.578Z,29.05
2022-08-11T10:47:49.571Z,27.58
2022-08-11T10:51:13.029Z,27.03
2022-08-11T10:54:34.350Z,27.20
2022-08-11T10:58:04.932Z,26.89
2022-08-11T11:01:10.614Z,27.32
2022-08-11T11:04:19.059Z,27.90
2022-08-11T11:07:24.932Z,27.25
2022-08-11T11:10:28.152Z,26.17
2022-08-11T11:13:54.921Z,26.53
2022-08-11T11:17:16.820Z,25.21
2022-08-11T11:20:36.335Z,24.16
2022-08-11T11:23:50.042Z,23.87
2022-08-11T11:27:05.684Z,22.66
2022-08-11T11:30:12.364Z,23.33
2022-08-11T11:33:25.458Z,23.16
2022-08-11T11:36:47.757Z,23.99
2022-08-11T11:39:51.006Z,24.38
2022-08-11T11:42:56.811Z,25.02
2022-08-11T11:46:00.086Z,25.21
2022-08-11T11:49:09.078Z,24.92
2022-08-11T11:52:21.812Z,25.31
2022-08-11T11:55:26.457Z,25.34
2022-08-11T11:58:48.364Z,25.01
2022-08-11T12:01:52.870Z,25.34
2022-08-11T12:04:56.385Z,25.19
2022-08-11T12:08:17.998Z,24.32
2022-08-11T12:11:42.252Z,23.60
2022-08-11T12:14:46.510Z,22.64
2022-08-11T12:17:52.801Z,23.23
2022-08-11T12:20:55.868Z,23.54
2022-08-11T12:24:21.099Z,23.61
2022-08-11T12:27:25.968Z,23.56
2022-08-11T12:30:29.634Z,23.65
2022-08-11T12:33:35.077Z,24.05
2022-08-11T12:36:46.344Z,24.21
2022-08-11T12:40:15.767Z,24.61
2022-08-11T12:43:56.968Z,24.55
2022-08-11T12:47:01.967Z,24.21
2022-08-11T12:50:29.129Z,24.88
2022-08-11T12:53:34.605Z,24.06
2022-08-11T12:56:59.579Z,24.46
2022-08-11T13:00:23.566Z,24.48
2022-08-11T13:03:52.517Z,24.34
2022-08-11T13:06:59.667Z,24.46
2022-08-11T13:10:05.498Z,24.54
2022-08-11T13:13:54.580Z,25.37
2022-08-11T13:16:54.612Z,26.86
2022-08-11T13:19:59.124Z,27.10
2022-08-11T13:23:03.534Z,27.45
2022-08-11T13:26:10.792Z,27.12
2022-08-11T13:29:14.990Z,27.56
2022-08-11T13:32:20.314Z,27.85
2022-08-11T13:35:24.286Z,27.89
2022-08-11T13:38:28.498Z,27.94
2022-08-11T13:41:39.086Z,27.93
2022-08-11T13:44:42.950Z,28.18
2022-08-11T13:47:46.772Z,28.19
2022-08-11T13:51:07.875Z,27.73
2022-08-11T13:54:21.476Z,27.40
2022-08-11T13:58:08.939Z,27.55
2022-08-11T14:00:52.771Z,27.55
2022-08-11T14:04:30.134Z,27.02
2022-08-11T14:07:34.487Z,27.12
2022-08-11T14:10:39.028Z,26.75
2022-08-11T14:13:48.415Z,26.91
2022-08-11T14:16:56.651Z,25.92
2022-08-11T14:20:37.878Z,25.83
2022-08-11T14:23:35.591Z,25.62
2022-08-11T14:26:42.211Z,25.49
2022-08-11T14:29:49.040Z,25.54
2022-08-11T14:32:55.377Z,26.17
2022-08-11T14:35:59.169Z,26.24
2022-08-11T14:39:13.007Z,26.35
2022-08-11T14:42:37.425Z,26.39
2022-08-11T14:45:59.429Z,25.44
2022-08-11T14:49:02.719Z,25.44
2022-08-11T14:52:09.776Z,25.21
2022-08-11T14:55:32.225Z,24.38
2022-08-11T14:58:35.195Z,24.83
2022-08-11T15:02:17.186Z,25.17
2022-08-11T15:05:20.576Z,25.51
2022-08-11T15:08:46.509Z,25.78
2022-08-11T15:12:07.777Z,25.31
2022-08-11T15:15:50.221Z,25.67
2022-08-11T15:18:53.043Z,25.65
2022-08-11T15:22:14.598Z,25.67
2022-08-11T15:25:17.570Z,25.74
2022-08-11T15:28:41.064Z,25.52
2022-08-11T15:32:02.651Z,25.73
2022-08-11T15:35:25.678Z,24.51
2022-08-11T15:38:42.774Z,24.73
2022-08-11T15:42:23.166Z,24.82
2022-08-11T15:45:45.172Z,25.28
2022-08-11T15:48:56.049Z,26.28
2022-08-11T15:52:18.026Z,26.65
2022-08-11T15:55:23.542Z,27.19
2022-08-11T15:59:10.633Z,27.85
2022-08-11T16:02:34.401Z,28.74
2022-08-11T16:05:46.485Z,29.32
2022-08-11T16:08:51.405Z,29.83
2022-08-11T16:11:56.906Z,30.20
2022-08-11T16:15:25.421Z,30.71
2022-08-11T16:18:42.290Z,30.88
2022-08-11T16:21:45.604Z,31.55
2022-08-11T16:27:01.924Z,31.88
2022-08-11T16:28:15.327Z,31.94
2022-08-11T16:31:21.891Z,32.34
2022-08-11T16:34:43.125Z,32.05
2022-08-11T16:38:05.635Z,32.17
2022-08-11T16:41:11.827Z,32.42
2022-08-11T16:44:37.710Z,32.43
2022-08-11T16:48:01.890Z,32.50
2022-08-11T16:51:07.750Z,32.61
2022-08-11T16:54:10.955Z,32.89
2022-08-11T16:57:37.084Z,33.04
2022-08-11T17:00:41.420Z,33.45
2022-08-11T17:04:10.410Z,33.78
2022-08-11T17:07:42.434Z,34.08
2022-08-11T17:11:16.969Z,34.28
2022-08-11T17:14:35.452Z,35.46
2022-08-11T17:17:39.979Z,36.69
2022-08-11T17:20:44.321Z,37.60
2022-08-11T17:23:51.841Z,38.42
2022-08-11T17:26:59.132Z,39.01
2022-08-11T17:30:06.142Z,39.77
2022-08-11T17:33:29.207Z,40.42
2022-08-11T17:36:33.330Z,40.68
2022-08-11T17:39:36.382Z,40.67
2022-08-11T17:43:00.274Z,40.82
2022-08-11T17:46:21.633Z,41.71
2022-08-11T17:49:26.436Z,42.49
2022-08-11T17:52:49.121Z,42.71
2022-08-11T17:56:11.485Z,42.81
2022-08-11T17:59:34.504Z,43.03
2022-08-11T18:03:01.464Z,43.29
2022-08-11T18:06:06.171Z,43.72
2022-08-11T18:09:32.858Z,44.15
2022-08-11T18:12:54.829Z,44.32
2022-08-11T18:16:15.844Z,44.46
2022-08-11T18:19:37.280Z,44.84
2022-08-11T18:23:01.688Z,45.03
2022-08-11T18:26:25.008Z,46.19
2022-08-11T18:29:49.290Z,46.29
2022-08-11T18:36:58.209Z,46.40
2022-08-11T18:40:26.299Z,46.09
2022-08-11T18:43:51.149Z,45.52
2022-08-11T18:47:14.120Z,45.44
2022-08-11T18:50:39.802Z,45.36
2022-08-11T18:54:05.800Z,45.13
2022-08-11T18:57:27.943Z,45.44
2022-08-11T19:00:56.371Z,45.88
2022-08-11T19:04:20.709Z,45.67
2022-08-11T19:07:44.239Z,45.86
2022-08-11T19:11:07.349Z,45.97
2022-08-11T19:14:30.363Z,46.06
2022-08-11T19:17:54.409Z,45.63
2022-08-11T19:21:18.482Z,46.14
2022-08-11T19:24:41.417Z,46.44
2022-08-11T19:28:07.101Z,46.65
2022-08-11T19:31:29.823Z,46.83
2022-08-11T19:34:52.216Z,47.26
2022-08-11T19:38:14.709Z,46.64
2022-08-11T19:41:56.914Z,46.62
2022-08-11T19:45:23.121Z,45.86
2022-08-11T19:48:45.598Z,45.00
2022-08-11T19:52:08.515Z,45.12
2022-08-11T19:55:31.027Z,44.94
2022-08-11T19:58:57.868Z,45.34
2022-08-11T20:02:19.415Z,45.93
2022-08-11T20:05:40.937Z,46.60
2022-08-11T20:09:22.677Z,46.01
2022-08-11T20:12:46.116Z,46.45
2022-08-11T20:16:10.136Z,46.32
2022-08-11T20:19:56.170Z,47.01
2022-08-11T20:23:19.191Z,46.52
2022-08-11T20:26:41.122Z,46.75
2022-08-11T20:30:02.915Z,45.88
2022-08-11T20:33:26.832Z,46.21
2022-08-11T20:36:52.456Z,46.71
2022-08-11T20:40:17.512Z,47.26
2022-08-11T20:44:06.984Z,46.74
2022-08-11T20:47:59.588Z,47.09
2022-08-11T20:51:17.472Z,47.44
2022-08-11T20:54:43.591Z,47.73
2022-08-11T20:58:14.411Z,48.09
2022-08-11T21:01:42.092Z,48.21
2022-08-11T21:05:03.698Z,48.53
2022-08-11T21:08:26.790Z,48.77
2022-08-11T21:11:50.964Z,49.16
2022-08-11T21:15:14.753Z,48.81
2022-08-11T21:18:59.692Z,49.22
2022-08-11T21:22:22.081Z,49.14
2022-08-11T21:25:54.445Z,48.87
2022-08-11T21:29:19.462Z,48.91
2022-08-11T21:32:42.813Z,48.56
2022-08-11T21:36:04.196Z,48.76
2022-08-11T21:39:29.117Z,49.61
2022-08-11T21:42:53.875Z,50.19
2022-08-11T21:46:16.990Z,50.03
2022-08-11T21:49:41.566Z,50.05
2022-08-11T21:53:02.922Z,50.74
2022-08-11T21:56:27.404Z,51.29
2022-08-11T22:00:03.197Z,52.68
2022-08-11T22:03:41.070Z,54.20
2022-08-11T22:07:12.418Z,54.50
2022-08-11T22:10:41.440Z,53.66
2022-08-11T22:14:08.067Z,53.52
2022-08-11T22:17:29.335Z,54.00
2022-08-11T22:20:52.060Z,54.00
2022-08-11T22:24:18.336Z,53.81
2022-08-11T22:27:52.112Z,53.21
2022-08-11T22:31:15.952Z,53.40
2022-08-11T22:34:51.200Z,54.33
2022-08-11T22:38:16.710Z,53.95
2022-08-11T22:41:40.740Z,54.26
2022-08-11T22:45:01.580Z,53.96
2022-08-11T22:48:25.983Z,52.90
2022-08-11T22:51:47.779Z,52.47
2022-08-11T22:55:11.145Z,52.86
2022-08-11T22:58:33.952Z,52.39
2022-08-11T23:01:57.892Z,52.73
2022-08-11T23:05:20.138Z,53.13
2022-08-11T23:08:41.876Z,53.46
2022-08-11T23:12:06.687Z,53.59
2022-08-11T23:15:31.749Z,53.91
2022-08-11T23:18:56.278Z,53.93
2022-08-11T23:22:22.021Z,54.03
2022-08-11T23:25:45.574Z,54.23
2022-08-11T23:29:07.515Z,53.83
2022-08-11T23:32:28.933Z,54.26
2022-08-11T23:35:57.956Z,54.32
2022-08-11T23:39:22.951Z,53.77
2022-08-11T23:42:46.211Z,53.64
2022-08-11T23:46:07.744Z,53.45
2022-08-11T23:49:29.690Z,53.75
2022-08-11T23:52:52.693Z,53.79
2022-08-11T23:56:14.741Z,54.31
2022-08-11T23:59:36.156Z,54.37
